Time;durP1;ratioP1;P1;durP2;ratioP2;P2;SDS_P1;SDS_P2;PMS_P1;PMS_P2;Temp;Humidity;BMP_temperature;BMP_pressure;BME280_temperature;BME280_humidity;BME280_pressure;Samples;Min_cycle;Max_cycle;Signal;HPM_P1;HPM_P2
2023/07/06 00:07:07;883472.00;2.94;1527.11;0.00;0.00;0.62;;;;;19.00;1.00;;;;;;2299930;40;3675;-87
2023/07/06 00:09:35;491998.00;1.64;848.05;0.00;0.00;0.62;;;;;18.90;1.00;;;;;;2290896;56;3731;-89
2023/07/06 00:12:03;156057.00;0.52;270.25;0.00;0.00;0.62;;;;;19.00;1.00;;;;;;2275826;61;1205;-88
2023/07/06 00:17:10;1182955.00;3.94;2059.43;0.00;0.00;0.62;;;;;18.90;1.00;;;;;;2297062;55;3648;-87
2023/07/06 00:22:09;1130587.00;3.77;1965.21;70492.00;0.23;122.61;;;;;18.90;1.00;;;;;;2273570;61;1423;-89
2023/07/06 00:24:38;316051.00;1.05;545.51;72298.00;0.24;125.73;;;;;18.90;1.00;;;;;;2271758;61;1651;-87
2023/07/06 00:34:34;1119998.00;3.73;1946.22;70300.00;0.23;122.28;;;;;18.70;1.00;;;;;;2300616;40;3616;-86
2023/07/06 00:37:02;405454.00;1.35;699.18;82516.00;0.28;143.38;;;;;18.70;1.00;;;;;;2275690;61;1325;-88
2023/07/06 00:39:29;222793.00;0.74;385.15;72463.00;0.24;126.02;;;;;19.00;1.00;;;;;;2275788;61;1141;-87
2023/07/06 00:41:58;434877.00;1.45;749.77;34849.00;0.12;60.98;;;;;19.00;1.00;;;;;;2275739;61;1682;-86
2023/07/06 00:44:47;461885.00;1.54;796.23;90019.00;0.30;156.34;;;;;18.90;1.00;;;;;;2282822;41;3620;-87
2023/07/06 00:47:14;143102.00;0.48;247.92;0.00;0.00;0.62;;;;;18.70;1.00;;;;;;2290997;55;3786;-86
2023/07/06 00:49:42;432698.00;1.44;746.03;65962.00;0.22;114.78;;;;;18.60;1.00;;;;;;2289808;55;3791;-87
2023/07/06 00:54:42;1166858.00;3.89;2030.41;122532.00;0.41;212.45;;;;;18.10;1.00;;;;;;2275450;40;3517;-87
2023/07/06 00:57:17;408494.00;1.36;704.41;86537.00;0.29;150.33;;;;;18.10;1.00;;;;;;2293220;55;3751;-87
2023/07/06 00:59:44;682180.00;2.27;1176.35;106132.00;0.35;184.16;;;;;18.00;1.00;;;;;;2275573;61;1681;-86
2023/07/06 01:07:17;1555361.00;5.18;2747.73;80865.00;0.27;140.53;;;;;17.90;1.00;;;;;;2288903;40;3625;-86
2023/07/06 01:09:44;887947.00;2.96;1534.96;85508.00;0.29;148.55;;;;;17.80;1.00;;;;;;2289422;56;3739;-87
2023/07/06 01:14:46;1526301.00;5.09;2692.71;93698.00;0.31;162.69;;;;;17.80;1.00;;;;;;2282652;55;3633;-87
2023/07/06 01:17:20;200112.00;0.67;346.12;0.00;0.00;0.62;;;;;18.00;1.00;;;;;;2288048;55;3796;-86
2023/07/06 01:22:31;1479580.00;4.93;2604.76;69319.00;0.23;120.58;;;;;17.80;1.00;;;;;;2277643;61;1300;-88
2023/07/06 01:27:58;809315.00;2.70;1397.37;0.00;0.00;0.62;;;;;18.20;1.00;;;;;;2273243;61;1423;-86
2023/07/06 01:33:02;121214448.00;404.05;72148872.00;119830488.00;399.43;69703512.00;;;;;17.60;1.00;;;;;;1979446;41;3558;-88
2023/07/06 01:43:01;1145776.00;3.82;1992.48;0.00;0.00;0.62;;;;;17.50;1.00;;;;;;2294750;40;3523;-87
2023/07/06 01:45:30;271766.00;0.91;469.38;0.00;0.00;0.62;;;;;17.40;1.00;;;;;;2286422;55;3761;-87
2023/07/06 01:48:05;250213.00;0.83;432.32;0.00;0.00;0.62;;;;;17.40;1.00;;;;;;2275618;61;1346;-86
2023/07/06 01:53:09;1346407.00;4.49;2357.29;0.00;0.00;0.62;;;;;17.30;1.00;;;;;;2279287;55;3654;-88
2023/07/06 01:55:43;271130.00;0.90;468.29;0.00;0.00;0.62;;;;;17.50;1.00;;;;;;2286095;55;3777;-88
2023/07/06 01:58:23;233877.00;0.78;404.22;0.00;0.00;0.62;;;;;17.50;1.00;;;;;;2284128;60;1784;-85
2023/07/06 02:00:55;48378.00;0.16;84.38;0.00;0.00;0.62;;;;;17.40;1.00;;;;;;2303401;40;3746;-86
2023/07/06 02:10:53;1062146.00;3.54;1842.86;0.00;0.00;0.62;;;;;17.30;1.00;;;;;;2297455;40;3468;-88
2023/07/06 02:15:50;1019734.00;3.40;1767.45;0.00;0.00;0.62;;;;;17.00;1.00;;;;;;2294024;39;3534;-87
2023/07/06 02:25:44;1031075.00;3.44;1787.59;0.00;0.00;0.62;;;;;17.40;1.00;;;;;;2311414;40;3494;-86
2023/07/06 02:28:12;299577.00;1.00;517.19;0.00;0.00;0.62;;;;;17.40;1.00;;;;;;2330785;56;3721;-89
2023/07/06 02:30:39;180138.00;0.60;311.73;0.00;0.00;0.62;;;;;17.00;1.00;;;;;;2306174;40;3766;-86
2023/07/06 02:35:37;1251304.00;4.17;2183.26;0.00;0.00;0.62;;;;;16.80;1.00;;;;;;2287881;55;3629;-85
2023/07/06 02:40:39;860414.00;2.87;1486.70;0.00;0.00;0.62;;;;;16.60;1.00;;;;;;2270478;61;1349;-87
2023/07/06 02:43:07;143399.00;0.48;248.43;0.00;0.00;0.62;;;;;16.50;1.00;;;;;;2278302;55;3765;-88
2023/07/06 02:45:36;104554.00;0.35;181.43;0.00;0.00;0.62;;;;;16.50;1.00;;;;;;2284977;61;1756;-88
2023/07/06 02:50:38;445010.00;1.48;767.20;0.00;0.00;0.62;;;;;16.50;1.00;;;;;;2287980;56;1938;-87
2023/07/06 02:55:33;1497757.00;4.99;2638.90;0.00;0.00;0.62;;;;;16.50;1.00;;;;;;2312015;55;3641;-86
2023/07/06 03:00:36;373736.00;1.25;644.66;0.00;0.00;0.62;;;;;16.50;1.00;;;;;;2281100;56;1968;-88
2023/07/06 03:13:06;834238.00;2.78;1440.90;0.00;0.00;0.62;;;;;16.40;1.00;;;;;;2315916;40;3471;-86
2023/07/06 03:15:33;454566.00;1.52;783.64;0.00;0.00;0.62;;;;;16.20;1.00;;;;;;2347092;40;3602;-87
2023/07/06 03:20:35;1146663.00;3.82;1994.08;0.00;0.00;0.62;;;;;15.80;1.20;;;;;;2317265;55;3626;-87
2023/07/06 03:30:31;1381528.00;4.61;2422.11;0.00;0.00;0.62;;;;;15.30;2.70;;;;;;2335631;40;3637;-89
2023/07/06 03:35:28;1464776.00;4.88;2577.01;116043.00;0.39;201.26;;;;;15.20;2.90;;;;;;2287336;55;3664;-87
2023/07/06 03:40:27;1503743.00;5.01;2650.17;73365.00;0.24;127.57;;;;;15.30;2.70;;;;;;1569546;40;3400;-88
2023/07/06 03:48:00;697055.00;2.32;1202.13;103752.00;0.35;180.05;;;;;15.70;2.00;;;;;;1360492;40;3195;-89
2023/07/06 03:50:28;406032.00;1.35;700.18;75032.00;0.25;130.45;;;;;15.70;1.60;;;;;;2347039;40;3621;-89
2023/07/06 04:00:45;1759864.00;5.87;3142.34;0.00;0.00;0.62;;;;;18.40;1.00;;;;;;2445231;55;3629;-89
2023/07/06 04:03:12;513005.00;1.71;884.22;9517.00;0.03;17.11;;;;;18.90;1.00;;;;;;2275967;61;1655;-89
2023/07/06 04:05:43;382975.00;1.28;660.54;0.00;0.00;0.62;;;;;18.40;1.00;;;;;;2276051;61;1110;-88
2023/07/06 04:08:15;259816.00;0.87;448.83;0.00;0.00;0.62;;;;;17.80;1.00;;;;;;2275815;61;1748;-87
2023/07/06 04:10:43;224418.00;0.75;387.95;0.00;0.00;0.62;;;;;17.40;1.00;;;;;;2275898;61;1988;-88
2023/07/06 04:13:11;707934.00;2.36;1221.00;26275.00;0.09;46.13;;;;;17.10;1.00;;;;;;2275777;61;1664;-89
2023/07/06 04:15:42;308488.00;1.03;532.51;885.00;0.00;2.15;;;;;17.30;1.00;;;;;;2275985;61;1477;-89
2023/07/06 04:18:10;461235.00;1.54;795.11;34648.00;0.12;60.63;;;;;17.60;1.00;;;;;;2275716;61;1487;-88
2023/07/06 04:20:37;268848.00;0.90;464.36;0.00;0.00;0.62;;;;;17.60;1.00;;;;;;2276025;61;1046;-86
2023/07/06 04:23:06;511094.00;1.70;880.93;2804.00;0.01;5.48;;;;;17.60;1.00;;;;;;2275770;61;1700;-89
2023/07/06 04:25:35;240573.00;0.80;415.74;0.00;0.00;0.62;;;;;17.40;1.00;;;;;;2276012;61;1002;-89
2023/07/06 04:28:05;313981.00;1.05;541.95;0.00;0.00;0.62;;;;;17.40;1.00;;;;;;2275851;61;1619;-89
2023/07/06 04:30:33;41787.00;0.14;72.98;0.00;0.00;0.62;;;;;17.40;1.00;;;;;;2275868;61;1913;-88
2023/07/06 04:33:03;153279.00;0.51;265.46;0.00;0.00;0.62;;;;;17.30;1.00;;;;;;2275800;61;1113;-89
2023/07/06 04:35:31;0.00;0.00;0.62;0.00;0.00;0.62;;;;;17.40;1.00;;;;;;2275914;61;1248;-86
2023/07/06 04:38:01;151325.00;0.50;262.09;0.00;0.00;0.62;;;;;17.40;1.00;;;;;;2275899;61;1590;-87
2023/07/06 04:40:28;112092.00;0.37;194.44;0.00;0.00;0.62;;;;;17.50;1.00;;;;;;2275741;61;1729;-88
2023/07/06 04:42:56;147004.00;0.49;254.64;0.00;0.00;0.62;;;;;17.50;1.00;;;;;;2275908;61;1494;-90
2023/07/06 04:45:26;313822.00;1.05;541.68;17087.00;0.06;30.23;;;;;17.90;1.00;;;;;;2275834;61;1711;-87
2023/07/06 04:47:56;201484.00;0.67;348.48;33510.00;0.11;58.66;;;;;17.90;1.00;;;;;;2275882;61;1784;-89
2023/07/06 04:50:26;79437.00;0.26;138.06;0.00;0.00;0.62;;;;;17.80;1.00;;;;;;2275735;61;1919;-89
2023/07/06 04:52:55;287029.00;0.96;495.62;0.00;0.00;0.62;;;;;17.90;1.00;;;;;;2275744;61;1797;-86
2023/07/06 04:55:23;176830.00;0.59;306.03;0.00;0.00;0.62;;;;;17.80;1.00;;;;;;2275782;61;1802;-86
2023/07/06 04:57:52;20888.00;0.07;36.81;0.00;0.00;0.62;;;;;17.70;1.00;;;;;;2275665;61;1349;-87
2023/07/06 05:00:24;139854.00;0.47;242.32;0.00;0.00;0.62;;;;;17.90;1.00;;;;;;2275803;61;1715;-89
2023/07/06 05:02:52;50466.00;0.17;87.99;0.00;0.00;0.62;;;;;18.10;1.00;;;;;;2275672;61;1684;-88
2023/07/06 05:05:20;152880.00;0.51;264.77;0.00;0.00;0.62;;;;;18.30;1.00;;;;;;2275619;61;1652;-88
2023/07/06 05:07:50;385479.00;1.28;664.84;97819.00;0.33;169.81;;;;;18.50;1.00;;;;;;2275336;61;1607;-91
2023/07/06 05:10:17;129198.00;0.43;223.95;0.00;0.00;0.62;;;;;18.60;1.00;;;;;;2275593;61;2010;-87
2023/07/06 05:12:45;128890.00;0.43;223.42;0.00;0.00;0.62;;;;;18.60;1.00;;;;;;2275805;61;992;-87
2023/07/06 05:15:12;295523.00;0.99;510.22;43317.00;0.14;75.63;;;;;18.60;1.00;;;;;;2275602;61;1584;-92
2023/07/06 05:17:40;40802.00;0.14;71.28;0.00;0.00;0.62;;;;;18.60;1.00;;;;;;2275496;61;1412;-89
2023/07/06 05:20:10;169014.00;0.56;292.57;0.00;0.00;0.62;;;;;18.60;1.00;;;;;;2275547;61;1024;-89
2023/07/06 05:22:39;253779.00;0.85;438.45;0.00;0.00;0.62;;;;;18.60;1.00;;;;;;2285313;41;3621;-90
2023/07/06 05:27:38;629959.00;2.10;1085.98;0.00;0.00;0.62;;;;;18.80;1.00;;;;;;2281895;61;1383;-87
2023/07/06 05:30:07;199682.00;0.67;345.38;0.00;0.00;0.62;;;;;18.90;1.00;;;;;;2280501;61;1215;-89
2023/07/06 05:32:34;198856.00;0.66;343.95;0.00;0.00;0.62;;;;;18.90;1.00;;;;;;2280349;61;2018;-87
2023/07/06 05:35:02;114864.00;0.38;199.22;0.00;0.00;0.62;;;;;19.10;1.00;;;;;;2280537;61;1240;-89
2023/07/06 05:37:30;210809.00;0.70;364.53;40089.00;0.13;70.04;;;;;18.80;1.00;;;;;;2294791;40;3616;-90
2023/07/06 05:39:59;70528.00;0.24;122.67;0.00;0.00;0.62;;;;;19.00;1.00;;;;;;2280433;60;1178;-87
2023/07/06 05:42:26;65037.00;0.22;113.18;0.00;0.00;0.62;;;;;19.00;1.00;;;;;;2280470;60;1672;-88
2023/07/06 05:44:55;146342.00;0.49;253.50;0.00;0.00;0.62;;;;;19.50;1.00;;;;;;2280445;60;1740;-88
2023/07/06 05:47:22;66395.00;0.22;115.53;0.00;0.00;0.62;;;;;20.20;1.00;;;;;;2280579;60;1353;-89
2023/07/06 05:49:49;265335.00;0.88;458.32;0.00;0.00;0.62;;;;;21.80;1.00;;;;;;2280535;60;1012;-87
2023/07/06 05:52:17;266375.00;0.89;460.11;43177.00;0.14;75.38;;;;;23.30;1.00;;;;;;2280510;60;1927;-87
2023/07/06 05:54:44;179546.00;0.60;310.71;45963.00;0.15;80.20;;;;;24.80;1.00;;;;;;2280299;60;1841;-88
2023/07/06 05:57:16;186436.00;0.62;322.57;0.00;0.00;0.62;;;;;25.70;1.00;;;;;;2280431;60;1244;-89
2023/07/06 05:59:43;21741.00;0.07;38.28;0.00;0.00;0.62;;;;;26.80;1.00;;;;;;2280547;60;1059;-87
2023/07/06 06:02:12;154307.00;0.51;267.23;0.00;0.00;0.62;;;;;28.90;1.00;;;;;;2280515;60;1001;-90
2023/07/06 06:04:40;39648.00;0.13;69.28;0.00;0.00;0.62;;;;;29.30;1.00;;;;;;2280403;60;1572;-89
2023/07/06 06:07:09;237958.00;0.79;411.24;694.00;0.00;1.82;;;;;29.50;1.00;;;;;;2280309;60;2217;-88
2023/07/06 06:09:37;89223.00;0.30;154.97;0.00;0.00;0.62;;;;;29.40;1.00;;;;;;2280254;60;982;-89
2023/07/06 06:12:05;131072.00;0.44;227.18;0.00;0.00;0.62;;;;;29.70;1.00;;;;;;2280495;60;1911;-88
2023/07/06 06:14:34;162765.00;0.54;281.80;0.00;0.00;0.62;;;;;30.30;1.00;;;;;;2280327;60;1309;-89
2023/07/06 06:17:03;150869.00;0.50;261.31;0.00;0.00;0.62;;;;;30.20;1.00;;;;;;2280385;60;1362;-88
2023/07/06 06:19:37;85496.00;0.28;148.53;0.00;0.00;0.62;;;;;30.60;1.00;;;;;;2280393;60;1229;-89
2023/07/06 06:22:05;181903.00;0.61;314.77;0.00;0.00;0.62;;;;;31.10;1.00;;;;;;2280469;60;1177;-88
2023/07/06 06:24:32;158587.00;0.53;274.60;0.00;0.00;0.62;;;;;31.20;1.00;;;;;;2280459;60;919;-88
2023/07/06 06:27:00;43240.00;0.14;75.49;0.00;0.00;0.62;;;;;30.20;1.00;;;;;;2280378;60;1283;-89
2023/07/06 06:29:28;152001.00;0.51;263.26;0.00;0.00;0.62;;;;;30.80;1.00;;;;;;2280174;60;1680;-89
2023/07/06 06:31:55;173694.00;0.58;300.63;0.00;0.00;0.62;;;;;31.10;1.00;;;;;;2280345;60;1990;-89
2023/07/06 06:34:23;151975.00;0.51;263.21;0.00;0.00;0.62;;;;;31.70;1.00;;;;;;2280429;60;993;-87
2023/07/06 06:36:51;97732.00;0.33;169.66;0.00;0.00;0.62;;;;;32.10;1.00;;;;;;2280323;60;923;-87
2023/07/06 06:39:19;321141.00;1.07;554.26;0.00;0.00;0.62;;;;;32.20;1.00;;;;;;2280284;60;1767;-87
2023/07/06 06:41:46;30482.00;0.10;53.42;0.00;0.00;0.62;;;;;33.00;1.00;;;;;;2280192;60;2115;-89
2023/07/06 06:44:14;208948.00;0.70;361.32;52357.00;0.17;91.26;;;;;33.20;1.00;;;;;;2280315;60;1154;-90
2023/07/06 06:46:41;264724.00;0.88;457.27;0.00;0.00;0.62;;;;;33.60;1.00;;;;;;2280306;60;1179;-88
2023/07/06 06:49:08;122044.00;0.41;211.61;0.00;0.00;0.62;;;;;33.70;1.00;;;;;;2280280;60;1273;-89
2023/07/06 06:51:35;110768.00;0.37;192.16;0.00;0.00;0.62;;;;;33.90;1.00;;;;;;2280095;60;2010;-88
2023/07/06 06:54:04;230442.00;0.77;398.31;0.00;0.00;0.62;;;;;34.20;1.00;;;;;;2280285;60;1996;-86
2023/07/06 06:56:31;189981.00;0.63;328.68;0.00;0.00;0.62;;;;;34.10;1.00;;;;;;2280073;60;1052;-88
2023/07/06 06:58:59;178641.00;0.60;309.15;0.00;0.00;0.62;;;;;34.10;1.00;;;;;;2280263;60;1445;-88
2023/07/06 07:01:26;192976.00;0.64;333.83;0.00;0.00;0.62;;;;;34.00;1.00;;;;;;2280126;60;1630;-89
2023/07/06 07:03:53;276782.00;0.92;478.00;1631.00;0.01;3.45;;;;;34.50;1.00;;;;;;2280308;60;1548;-88
2023/07/06 07:06:22;108311.00;0.36;187.92;0.00;0.00;0.62;;;;;34.40;1.00;;;;;;2280225;60;938;-89
2023/07/06 07:08:50;96739.00;0.32;167.94;0.00;0.00;0.62;;;;;35.10;1.00;;;;;;2280130;60;1609;-89
2023/07/06 07:11:20;138965.00;0.46;240.79;0.00;0.00;0.62;;;;;34.70;1.00;;;;;;2280121;60;1988;-89
2023/07/06 07:13:48;80190.00;0.27;139.37;0.00;0.00;0.62;;;;;34.70;1.00;;;;;;2280137;60;1157;-88
2023/07/06 07:16:16;189144.00;0.63;327.23;0.00;0.00;0.62;;;;;34.90;1.00;;;;;;2280222;60;908;-89
2023/07/06 07:18:44;178198.00;0.59;308.39;29256.00;0.10;51.30;;;;;35.00;1.00;;;;;;2280219;60;1757;-87
2023/07/06 07:21:12;224898.00;0.75;388.77;0.00;0.00;0.62;;;;;34.70;1.00;;;;;;2280074;60;1579;-87
2023/07/06 07:23:42;0.00;0.00;0.62;0.00;0.00;0.62;;;;;34.40;1.00;;;;;;2280068;60;976;-87
2023/07/06 07:26:09;498107.00;1.66;858.56;96587.00;0.32;167.68;;;;;34.40;1.00;;;;;;2280026;60;1739;-89
2023/07/06 07:28:38;171181.00;0.57;296.30;0.00;0.00;0.62;;;;;34.60;1.00;;;;;;2280143;60;1285;-89
2023/07/06 07:31:07;176252.00;0.59;305.03;0.00;0.00;0.62;;;;;35.20;1.00;;;;;;2279991;60;2012;-89
2023/07/06 07:33:37;146851.00;0.49;254.38;0.00;0.00;0.62;;;;;35.50;1.00;;;;;;2280162;60;1276;-89
2023/07/06 07:36:05;0.00;0.00;0.62;0.00;0.00;0.62;;;;;35.60;1.00;;;;;;2280129;60;1577;-90
2023/07/06 07:38:33;122515.00;0.41;212.42;0.00;0.00;0.62;;;;;35.40;1.00;;;;;;2280148;60;1576;-89
2023/07/06 07:41:03;259933.00;0.87;449.03;0.00;0.00;0.62;;;;;35.60;1.00;;;;;;2280020;60;1242;-89
2023/07/06 07:43:34;78142.00;0.26;135.83;0.00;0.00;0.62;;;;;35.70;1.00;;;;;;2279997;60;1579;-90
2023/07/06 07:46:05;114284.00;0.38;198.22;0.00;0.00;0.62;;;;;35.50;1.00;;;;;;2279985;60;1193;-90
2023/07/06 07:48:33;279728.00;0.93;483.07;0.00;0.00;0.62;;;;;35.30;1.00;;;;;;2279803;60;1532;-89
2023/07/06 07:51:04;26831.00;0.09;47.10;0.00;0.00;0.62;;;;;35.70;1.00;;;;;;2280114;60;2007;-90
2023/07/06 07:53:33;185650.00;0.62;321.22;0.00;0.00;0.62;;;;;35.70;1.00;;;;;;2280068;60;1656;-90
2023/07/06 07:56:00;13433.00;0.04;23.90;0.00;0.00;0.62;;;;;35.90;1.00;;;;;;2280033;60;954;-90
2023/07/06 07:58:28;138097.00;0.46;239.29;0.00;0.00;0.62;;;;;36.40;1.00;;;;;;2279996;60;1615;-88
2023/07/06 08:00:56;136866.00;0.46;237.17;0.00;0.00;0.62;;;;;36.00;1.00;;;;;;2280050;60;1050;-89
2023/07/06 08:03:25;106794.00;0.36;185.30;0.00;0.00;0.62;;;;;36.10;1.00;;;;;;2280049;60;1604;-88
2023/07/06 08:05:53;162108.00;0.54;280.67;0.00;0.00;0.62;;;;;36.60;1.00;;;;;;2280058;60;1923;-89
2023/07/06 08:08:22;81396.00;0.27;141.45;0.00;0.00;0.62;;;;;36.20;1.00;;;;;;2280110;60;1752;-89
2023/07/06 08:10:50;70981.00;0.24;123.46;0.00;0.00;0.62;;;;;35.80;1.00;;;;;;2279978;60;1231;-89
2023/07/06 08:13:20;176236.00;0.59;305.01;0.00;0.00;0.62;;;;;35.70;1.00;;;;;;2279981;60;1919;-89
2023/07/06 08:15:50;20127.00;0.07;35.49;0.00;0.00;0.62;;;;;35.50;1.00;;;;;;2279899;60;1027;-88
2023/07/06 08:18:18;0.00;0.00;0.62;0.00;0.00;0.62;;;;;35.50;1.00;;;;;;2280017;60;1344;-89
2023/07/06 08:20:47;178415.00;0.59;308.76;0.00;0.00;0.62;;;;;35.70;1.00;;;;;;2279972;60;1590;-89
2023/07/06 08:23:16;0.00;0.00;0.62;0.00;0.00;0.62;;;;;36.00;1.00;;;;;;2279981;60;1764;-90
2023/07/06 08:25:44;904.00;0.00;2.19;0.00;0.00;0.62;;;;;36.40;1.00;;;;;;2280018;60;1024;-87
2023/07/06 08:28:14;17193.00;0.06;30.41;0.00;0.00;0.62;;;;;36.20;1.00;;;;;;2279739;60;1397;-89
2023/07/06 08:30:42;125408.00;0.42;217.41;0.00;0.00;0.62;;;;;36.10;1.00;;;;;;2279959;60;1554;-89
2023/07/06 08:33:10;47349.00;0.16;82.60;0.00;0.00;0.62;;;;;36.30;1.00;;;;;;2279816;60;2017;-89
2023/07/06 08:35:42;177195.00;0.59;306.66;5662.00;0.02;10.43;;;;;35.90;1.00;;;;;;2279986;60;1611;-88
2023/07/06 08:38:11;295189.00;0.98;509.65;45483.00;0.15;79.37;;;;;36.10;1.00;;;;;;2279824;60;1785;-89
2023/07/06 08:40:38;15580.00;0.05;27.62;0.00;0.00;0.62;;;;;36.00;1.00;;;;;;2280099;60;1031;-89
2023/07/06 08:43:12;0.00;0.00;0.62;0.00;0.00;0.62;;;;;36.00;1.00;;;;;;2280029;60;2437;-90
2023/07/06 08:45:42;156012.00;0.52;270.17;0.00;0.00;0.62;;;;;35.10;1.00;;;;;;2279888;60;1638;-88
2023/07/06 08:48:13;254951.00;0.85;440.47;21188.00;0.07;37.33;;;;;34.50;1.00;;;;;;2279760;60;1459;-89
2023/07/06 08:50:48;100296.00;0.33;174.08;0.00;0.00;0.62;;;;;34.60;1.00;;;;;;2279900;60;1495;-87
2023/07/06 08:53:17;20239.00;0.07;35.68;0.00;0.00;0.62;;;;;34.10;1.00;;;;;;2279804;60;2018;-89
2023/07/06 08:55:45;366517.00;1.22;632.25;48096.00;0.16;83.89;;;;;34.50;1.00;;;;;;2280033;60;1600;-88
2023/07/06 08:58:23;147319.00;0.49;255.19;0.00;0.00;0.62;;;;;33.60;1.00;;;;;;2279986;60;1742;-88
2023/07/06 09:00:50;105785.00;0.35;183.56;0.00;0.00;0.62;;;;;33.30;1.00;;;;;;2280691;60;1723;-88
2023/07/06 09:03:18;160695.00;0.54;278.24;0.00;0.00;0.62;;;;;33.40;1.00;;;;;;2280747;60;928;-88
2023/07/06 09:05:48;162356.00;0.54;281.10;0.00;0.00;0.62;;;;;33.20;1.00;;;;;;2280420;60;1639;-89
2023/07/06 09:08:23;145189.00;0.48;251.52;0.00;0.00;0.62;;;;;33.30;1.00;;;;;;2280584;60;1499;-86
2023/07/06 09:10:50;75424.00;0.25;131.13;0.00;0.00;0.62;;;;;33.60;1.00;;;;;;2280704;60;1055;-88
2023/07/06 09:13:24;127100.00;0.42;220.33;0.00;0.00;0.62;;;;;33.60;1.00;;;;;;2280734;60;1922;-88
2023/07/06 09:15:57;166449.00;0.55;288.15;0.00;0.00;0.62;;;;;33.20;1.00;;;;;;2280438;60;1641;-87
2023/07/06 09:18:29;9292.00;0.03;16.72;0.00;0.00;0.62;;;;;33.20;1.00;;;;;;2280562;60;1463;-85
2023/07/06 09:21:02;158369.00;0.53;274.23;0.00;0.00;0.62;;;;;32.90;1.00;;;;;;2280463;60;1636;-87
2023/07/06 09:23:37;163016.00;0.54;282.24;0.00;0.00;0.62;;;;;32.70;1.00;;;;;;2280598;60;1284;-88
2023/07/06 09:26:12;244430.00;0.81;422.37;0.00;0.00;0.62;;;;;32.60;1.00;;;;;;2280483;60;1773;-87
2023/07/06 09:28:40;313980.00;1.05;541.95;127609.00;0.43;221.21;;;;;32.50;1.00;;;;;;2277072;60;1387;-86
2023/07/06 09:31:10;341601.00;1.14;589.43;0.00;0.00;0.62;;;;;32.30;1.00;;;;;;2280641;60;1766;-88
2023/07/06 09:33:44;114734.00;0.38;199.00;0.00;0.00;0.62;;;;;31.50;1.00;;;;;;2280470;60;2009;-88
2023/07/06 09:36:18;420064.00;1.40;724.30;0.00;0.00;0.62;;;;;31.60;1.00;;;;;;2280251;60;1737;-89
2023/07/06 09:38:49;40003.00;0.13;69.89;0.00;0.00;0.62;;;;;31.50;1.00;;;;;;2280456;60;1417;-88
2023/07/06 09:41:27;64714.00;0.22;112.63;0.00;0.00;0.62;;;;;31.80;1.00;;;;;;2276899;60;1814;-87
2023/07/06 09:44:03;49750.00;0.17;86.75;0.00;0.00;0.62;;;;;32.00;1.00;;;;;;2280608;60;1601;-88
2023/07/06 09:46:35;90038.00;0.30;156.37;0.00;0.00;0.62;;;;;31.00;1.00;;;;;;2280499;60;1040;-87
2023/07/06 09:49:11;345324.00;1.15;595.82;68790.00;0.23;119.67;;;;;30.60;1.00;;;;;;2280545;60;1363;-87
2023/07/06 09:51:50;317681.00;1.06;548.31;68768.00;0.23;119.63;;;;;30.50;1.00;;;;;;2277190;60;2012;-88
2023/07/06 10:11:47;502958.00;1.68;866.92;0.00;0.00;0.62;;;;;32.30;1.00;;;;;;1662158;40;3539;-89
2023/07/06 10:19:22;688876.00;2.30;1187.95;0.00;0.00;0.62;;;;;31.10;1.00;;;;;;2357397;55;3675;-90
2023/07/06 10:22:03;341024.00;1.14;588.43;41811.00;0.14;73.02;;;;;30.70;1.00;;;;;;2339675;40;3816;-88
2023/07/06 10:29:41;1107614.00;3.69;1924.05;0.00;0.00;0.62;;;;;31.00;1.00;;;;;;2278144;61;1226;-88
2023/07/06 10:34:45;925073.00;3.08;1600.20;20750.00;0.07;36.57;;;;;31.50;1.00;;;;;;1554034;56;3550;-88
2023/07/06 10:40:05;2062079.00;6.87;3752.58;258779.00;0.86;447.05;;;;;29.90;1.00;;;;;;2278541;61;1351;-92
2023/07/06 10:45:04;959623.00;3.20;1661.09;0.00;0.00;0.62;;;;;29.80;1.00;;;;;;2278675;61;1341;-93
2023/07/06 10:50:28;553545.00;1.85;954.07;0.00;0.00;0.62;;;;;29.70;1.00;;;;;;2278735;61;1346;-92
2023/07/06 11:02:58;962921.00;3.21;1666.91;5045.00;0.02;9.36;;;;;29.70;1.00;;;;;;2277992;61;1012;-92
2023/07/06 11:10:43;648031.00;2.16;1117.23;0.00;0.00;0.62;;;;;30.30;1.00;;;;;;2278239;61;1278;-89
2023/07/06 11:18:24;2466795.00;8.22;4631.02;363612.00;1.21;627.26;;;;;29.20;1.00;;;;;;2389847;55;3663;-86
2023/07/06 12:06:00;897208.00;2.99;1551.22;15656.00;0.05;27.75;;;;;30.00;1.00;;;;;;2270479;40;3578;-87
2023/07/06 12:08:29;313068.00;1.04;540.38;102865.00;0.34;178.52;;;;;30.10;1.00;;;;;;2280178;60;1406;-86
2023/07/06 12:11:00;8041.00;0.03;14.56;0.00;0.00;0.62;;;;;30.40;1.00;;;;;;2279915;60;1023;-86
2023/07/06 12:13:30;0.00;0.00;0.62;0.00;0.00;0.62;;;;;30.70;1.00;;;;;;2279913;60;1917;-87
2023/07/06 12:16:04;126218.00;0.42;218.81;35781.00;0.12;62.59;;;;;30.70;1.00;;;;;;2280042;60;970;-84
2023/07/06 12:18:33;0.00;0.00;0.62;0.00;0.00;0.62;;;;;30.80;1.00;;;;;;2280103;60;1378;-85
2023/07/06 12:21:03;0.00;0.00;0.62;0.00;0.00;0.62;;;;;30.60;1.00;;;;;;2279342;60;1142;-85
2023/07/06 12:23:31;0.00;0.00;0.62;0.00;0.00;0.62;;;;;30.40;1.00;;;;;;2280134;60;811;-86
2023/07/06 12:25:59;111257.00;0.37;193.00;46033.00;0.15;80.33;;;;;30.40;1.00;;;;;;2279677;60;1078;-86
2023/07/06 12:28:29;0.00;0.00;0.62;0.00;0.00;0.62;;;;;30.40;1.00;;;;;;2279460;60;1362;-86
2023/07/06 12:30:59;133973.00;0.45;232.18;16572.00;0.06;29.33;;;;;30.20;1.00;;;;;;2280047;60;1030;-88
2023/07/06 12:33:29;55479.00;0.18;96.66;0.00;0.00;0.62;;;;;30.00;1.00;;;;;;2276555;61;2000;-84
2023/07/06 12:35:57;81070.00;0.27;140.89;0.00;0.00;0.62;;;;;29.90;1.00;;;;;;2275685;61;1125;-85
2023/07/06 12:38:25;205518.00;0.69;355.42;71992.00;0.24;125.20;;;;;30.20;1.00;;;;;;2276193;61;1256;-85
2023/07/06 12:41:12;0.00;0.00;0.62;0.00;0.00;0.62;;;;;30.30;1.00;;;;;;2279207;61;1126;-84
2023/07/06 12:43:39;0.00;0.00;0.62;0.00;0.00;0.62;;;;;30.10;1.00;;;;;;2278608;60;1070;-85
2023/07/06 12:46:09;0.00;0.00;0.62;0.00;0.00;0.62;;;;;30.00;1.00;;;;;;2278691;61;1118;-84
2023/07/06 13:51:14;1090361.00;3.63;1893.19;0.00;0.00;0.62;;;;;30.30;1.00;;;;;;2279041;61;1049;-93
2023/07/06 14:26:19;967018.00;3.22;1674.14;0.00;0.00;0.62;;;;;29.10;1.00;;;;;;2274371;61;999;-91
2023/07/06 14:31:17;799795.00;2.67;1380.77;0.00;0.00;0.62;;;;;29.70;1.00;;;;;;2278553;61;1332;-91
2023/07/06 14:33:44;32217.00;0.11;56.42;0.00;0.00;0.62;;;;;30.10;1.00;;;;;;2276961;61;1931;-89
2023/07/06 14:36:11;138060.00;0.46;239.23;0.00;0.00;0.62;;;;;30.30;1.00;;;;;;2276650;61;1772;-92
2023/07/06 14:38:38;34844.00;0.12;60.97;0.00;0.00;0.62;;;;;30.10;1.00;;;;;;2276654;61;1441;-91
2023/07/06 14:41:07;206480.00;0.69;357.08;0.00;0.00;0.62;;;;;30.20;1.00;;;;;;2276998;61;1550;-91
2023/07/06 14:43:35;313223.00;1.04;540.65;0.00;0.00;0.62;;;;;30.20;1.00;;;;;;2276724;61;940;-90
2023/07/06 15:08:38;1505002.00;5.02;2652.54;0.00;0.00;0.62;;;;;29.90;1.00;;;;;;2509930;55;3510;31
2023/07/06 15:26:33;1317496.00;4.39;2304.16;0.00;0.00;0.62;;;;;29.20;1.00;;;;;;2513482;55;3698;31
2023/07/06 15:41:39;1068365.00;3.56;1853.94;0.00;0.00;0.62;;;;;29.20;1.00;;;;;;2515386;55;3617;31
2023/07/06 16:26:56;1418360.00;4.73;2490.42;63833.00;0.21;111.10;;;;;28.50;1.00;;;;;;2474991;40;3603;31
2023/07/06 17:42:02;1217322.00;4.06;2121.57;0.00;0.00;0.62;;;;;28.20;1.00;;;;;;2286283;61;1095;-92
2023/07/06 18:37:26;1569015.00;5.23;2773.67;61398.00;0.20;106.89;;;;;26.90;1.00;;;;;;2274229;61;1287;-90
2023/07/06 18:39:53;238952.00;0.80;412.95;0.00;0.00;0.62;;;;;27.20;1.00;;;;;;2272619;61;1668;-92
2023/07/06 18:42:20;225975.00;0.75;390.62;0.00;0.00;0.62;;;;;27.20;1.00;;;;;;2272588;61;1653;-89
2023/07/06 18:59:59;1297314.00;4.32;2267.19;104585.00;0.35;181.49;;;;;27.50;1.00;;;;;;2286246;61;1183;-90
2023/07/06 19:02:26;318042.00;1.06;548.93;64365.00;0.21;112.02;;;;;27.30;1.00;;;;;;2477277;39;3820;-90
2023/07/06 22:13:42;1275650.00;4.25;2227.61;0.00;0.00;0.62;;;;;23.10;1.00;;;;;;2286745;61;1038;-90
2023/07/06 22:16:10;478295.00;1.59;824.46;1929.00;0.01;3.96;;;;;23.00;1.00;;;;;;2284581;61;1663;-90
2023/07/06 22:18:38;194727.00;0.65;336.85;35605.00;0.12;62.28;;;;;23.30;1.00;;;;;;2284820;61;1602;-90
2023/07/06 22:21:05;238207.00;0.79;411.67;0.00;0.00;0.62;;;;;23.50;1.00;;;;;;2284834;61;1669;-90
2023/07/06 22:23:34;190568.00;0.64;329.69;0.00;0.00;0.62;;;;;23.50;1.00;;;;;;2284570;61;1681;-91